sensor_id;sensor_type;location;lat;lon;timestamp;temperature;humidity
18456;DHT22;9357;49.900;8.208;2024-02-14T00:00:20;7.50;99.90
18456;DHT22;9357;49.900;8.208;2024-02-14T00:01:52;7.50;99.90
18456;DHT22;9357;49.900;8.208;2024-02-14T00:03:25;7.50;99.90
18456;DHT22;9357;49.900;8.208;2024-02-14T00:04:57;7.40;99.90
18456;DHT22;9357;49.900;8.208;2024-02-14T00:06:36;7.50;99.90
18456;DHT22;9357;49.900;8.208;2024-02-14T00:08:08;7.50;99.90
18456;DHT22;9357;49.900;8.208;2024-02-14T00:09:41;7.50;99.90
18456;DHT22;9357;49.900;8.208;2024-02-14T00:11:13;7.50;99.90
18456;DHT22;9357;49.900;8.208;2024-02-14T00:12:46;7.50;99.90
18456;DHT22;9357;49.900;8.208;2024-02-14T00:14:19;7.50;99.90
18456;DHT22;9357;49.900;8.208;2024-02-14T00:15:52;7.50;99.90
18456;DHT22;9357;49.900;8.208;2024-02-14T00:17:24;7.50;99.90
18456;DHT22;9357;49.900;8.208;2024-02-14T00:18:57;7.50;99.90
18456;DHT22;9357;49.900;8.208;2024-02-14T00:20:29;7.50;99.90
18456;DHT22;9357;49.900;8.208;2024-02-14T00:22:03;7.50;99.90
18456;DHT22;9357;49.900;8.208;2024-02-14T00:23:35;7.60;99.90
18456;DHT22;9357;49.900;8.208;2024-02-14T00:25:08;7.60;99.90
18456;DHT22;9357;49.900;8.208;2024-02-14T00:26:41;7.60;99.90
18456;DHT22;9357;49.900;8.208;2024-02-14T00:28:13;7.60;99.90
18456;DHT22;9357;49.900;8.208;2024-02-14T00:29:46;7.60;99.90
18456;DHT22;9357;49.900;8.208;2024-02-14T00:31:19;7.60;99.90
18456;DHT22;9357;49.900;8.208;2024-02-14T00:32:52;7.60;99.90
18456;DHT22;9357;49.900;8.208;2024-02-14T00:34:24;7.60;99.90
18456;DHT22;9357;49.900;8.208;2024-02-14T00:35:57;7.60;99.90
18456;DHT22;9357;49.900;8.208;2024-02-14T00:37:31;7.60;99.90
18456;DHT22;9357;49.900;8.208;2024-02-14T00:39:05;7.70;99.90
18456;DHT22;9357;49.900;8.208;2024-02-14T00:40:40;7.60;99.90
18456;DHT22;9357;49.900;8.208;2024-02-14T00:42:12;7.70;99.90
18456;DHT22;9357;49.900;8.208;2024-02-14T00:43:44;7.70;99.90
18456;DHT22;9357;49.900;8.208;2024-02-14T00:45:16;7.60;99.90
18456;DHT22;9357;49.900;8.208;2024-02-14T00:46:49;7.70;99.90
18456;DHT22;9357;49.900;8.208;2024-02-14T00:48:21;7.70;99.90
18456;DHT22;9357;49.900;8.208;2024-02-14T00:49:54;7.70;99.90
18456;DHT22;9357;49.900;8.208;2024-02-14T00:51:26;7.70;99.90
18456;DHT22;9357;49.900;8.208;2024-02-14T00:53:00;7.70;99.90
18456;DHT22;9357;49.900;8.208;2024-02-14T00:54:32;7.60;99.90
18456;DHT22;9357;49.900;8.208;2024-02-14T00:56:06;7.70;99.90
18456;DHT22;9357;49.900;8.208;2024-02-14T00:57:37;7.70;99.90
18456;DHT22;9357;49.900;8.208;2024-02-14T00:59:10;7.70;99.90
18456;DHT22;9357;49.900;8.208;2024-02-14T01:00:42;7.70;99.90
18456;DHT22;9357;49.900;8.208;2024-02-14T01:02:15;7.70;99.90
18456;DHT22;9357;49.900;8.208;2024-02-14T01:03:47;7.70;99.90
18456;DHT22;9357;49.900;8.208;2024-02-14T01:05:20;7.70;99.90
18456;DHT22;9357;49.900;8.208;2024-02-14T01:06:51;7.70;99.90
18456;DHT22;9357;49.900;8.208;2024-02-14T01:08:26;7.60;99.90
18456;DHT22;9357;49.900;8.208;2024-02-14T01:09:57;7.70;99.90
18456;DHT22;9357;49.900;8.208;2024-02-14T01:11:30;7.70;99.90
18456;DHT22;9357;49.900;8.208;2024-02-14T01:13:03;7.70;99.90
18456;DHT22;9357;49.900;8.208;2024-02-14T01:14:36;7.70;99.90
18456;DHT22;9357;49.900;8.208;2024-02-14T01:16:08;7.70;99.90
18456;DHT22;9357;49.900;8.208;2024-02-14T01:17:41;7.70;99.90
18456;DHT22;9357;49.900;8.208;2024-02-14T01:19:14;7.70;99.90
18456;DHT22;9357;49.900;8.208;2024-02-14T01:20:47;7.60;99.90
18456;DHT22;9357;49.900;8.208;2024-02-14T01:22:19;7.60;99.90
18456;DHT22;9357;49.900;8.208;2024-02-14T01:23:54;7.60;99.90
18456;DHT22;9357;49.900;8.208;2024-02-14T01:25:27;7.60;99.90
18456;DHT22;9357;49.900;8.208;2024-02-14T01:26:59;7.60;99.90
18456;DHT22;9357;49.900;8.208;2024-02-14T01:28:32;7.60;99.90
18456;DHT22;9357;49.900;8.208;2024-02-14T01:30:05;7.60;99.90
18456;DHT22;9357;49.900;8.208;2024-02-14T01:31:38;7.60;99.90
18456;DHT22;9357;49.900;8.208;2024-02-14T01:33:10;7.60;99.90
18456;DHT22;9357;49.900;8.208;2024-02-14T01:34:42;7.60;99.90
18456;DHT22;9357;49.900;8.208;2024-02-14T01:36:15;7.60;99.90
18456;DHT22;9357;49.900;8.208;2024-02-14T01:37:48;7.60;99.90
18456;DHT22;9357;49.900;8.208;2024-02-14T01:39:22;7.50;99.90
18456;DHT22;9357;49.900;8.208;2024-02-14T01:40:54;7.60;99.90
18456;DHT22;9357;49.900;8.208;2024-02-14T01:42:26;7.50;99.90
18456;DHT22;9357;49.900;8.208;2024-02-14T01:43:59;7.60;99.90
18456;DHT22;9357;49.900;8.208;2024-02-14T01:45:32;7.50;99.90
18456;DHT22;9357;49.900;8.208;2024-02-14T01:47:05;7.60;99.90
18456;DHT22;9357;49.900;8.208;2024-02-14T01:48:38;7.60;99.90
18456;DHT22;9357;49.900;8.208;2024-02-14T01:50:11;7.60;99.90
18456;DHT22;9357;49.900;8.208;2024-02-14T01:51:46;7.60;99.90
18456;DHT22;9357;49.900;8.208;2024-02-14T01:53:19;7.60;99.90
18456;DHT22;9357;49.900;8.208;2024-02-14T01:54:53;7.50;99.90
18456;DHT22;9357;49.900;8.208;2024-02-14T01:56:27;7.50;99.90
18456;DHT22;9357;49.900;8.208;2024-02-14T01:58:00;7.50;99.90
18456;DHT22;9357;49.900;8.208;2024-02-14T01:59:34;7.50;99.90
18456;DHT22;9357;49.900;8.208;2024-02-14T02:01:07;7.40;99.90
18456;DHT22;9357;49.900;8.208;2024-02-14T02:02:41;7.50;99.90
18456;DHT22;9357;49.900;8.208;2024-02-14T02:04:14;7.40;99.90
18456;DHT22;9357;49.900;8.208;2024-02-14T02:05:47;7.50;99.90
18456;DHT22;9357;49.900;8.208;2024-02-14T02:07:30;7.40;99.90
18456;DHT22;9357;49.900;8.208;2024-02-14T02:09:04;7.40;99.90
18456;DHT22;9357;49.900;8.208;2024-02-14T02:10:37;7.40;99.90
18456;DHT22;9357;49.900;8.208;2024-02-14T02:12:10;7.40;99.90
18456;DHT22;9357;49.900;8.208;2024-02-14T02:13:42;7.50;99.90
18456;DHT22;9357;49.900;8.208;2024-02-14T02:15:15;7.50;99.90
18456;DHT22;9357;49.900;8.208;2024-02-14T02:16:48;7.50;99.90
18456;DHT22;9357;49.900;8.208;2024-02-14T02:18:20;7.50;99.90
18456;DHT22;9357;49.900;8.208;2024-02-14T02:19:53;7.50;99.90
18456;DHT22;9357;49.900;8.208;2024-02-14T02:21:26;7.50;99.90
18456;DHT22;9357;49.900;8.208;2024-02-14T02:22:59;7.40;99.90
18456;DHT22;9357;49.900;8.208;2024-02-14T02:24:34;7.50;99.90
18456;DHT22;9357;49.900;8.208;2024-02-14T02:26:06;7.50;99.90
18456;DHT22;9357;49.900;8.208;2024-02-14T02:27:38;7.50;99.90
18456;DHT22;9357;49.900;8.208;2024-02-14T02:29:12;7.50;99.90
18456;DHT22;9357;49.900;8.208;2024-02-14T02:30:43;7.50;99.90
18456;DHT22;9357;49.900;8.208;2024-02-14T02:32:18;7.50;99.90
18456;DHT22;9357;49.900;8.208;2024-02-14T02:33:49;7.60;99.90
18456;DHT22;9357;49.900;8.208;2024-02-14T02:35:23;7.60;99.90
18456;DHT22;9357;49.900;8.208;2024-02-14T02:36:56;7.60;99.90
18456;DHT22;9357;49.900;8.208;2024-02-14T02:38:30;7.60;99.90
18456;DHT22;9357;49.900;8.208;2024-02-14T02:40:03;7.60;99.90
18456;DHT22;9357;49.900;8.208;2024-02-14T02:41:36;7.60;99.90
18456;DHT22;9357;49.900;8.208;2024-02-14T02:43:08;7.60;99.90
18456;DHT22;9357;49.900;8.208;2024-02-14T02:44:42;7.60;99.90
18456;DHT22;9357;49.900;8.208;2024-02-14T02:46:14;7.60;99.90
18456;DHT22;9357;49.900;8.208;2024-02-14T02:47:47;7.60;99.90
18456;DHT22;9357;49.900;8.208;2024-02-14T02:49:20;7.60;99.90
18456;DHT22;9357;49.900;8.208;2024-02-14T02:50:53;7.60;99.90
18456;DHT22;9357;49.900;8.208;2024-02-14T02:52:25;7.60;99.90
18456;DHT22;9357;49.900;8.208;2024-02-14T02:53:59;7.60;99.90
18456;DHT22;9357;49.900;8.208;2024-02-14T02:55:33;7.60;99.90
18456;DHT22;9357;49.900;8.208;2024-02-14T02:57:08;7.70;99.90
18456;DHT22;9357;49.900;8.208;2024-02-14T02:58:41;7.60;99.90
18456;DHT22;9357;49.900;8.208;2024-02-14T03:00:14;7.70;99.90
18456;DHT22;9357;49.900;8.208;2024-02-14T03:01:47;7.70;99.90
18456;DHT22;9357;49.900;8.208;2024-02-14T03:03:21;7.60;99.90
18456;DHT22;9357;49.900;8.208;2024-02-14T03:04:56;7.70;99.90
18456;DHT22;9357;49.900;8.208;2024-02-14T03:06:28;7.60;99.90
18456;DHT22;9357;49.900;8.208;2024-02-14T03:08:01;7.60;99.90
18456;DHT22;9357;49.900;8.208;2024-02-14T03:09:34;7.60;99.90
18456;DHT22;9357;49.900;8.208;2024-02-14T03:11:07;7.50;99.90
18456;DHT22;9357;49.900;8.208;2024-02-14T03:12:39;7.50;99.90
18456;DHT22;9357;49.900;8.208;2024-02-14T03:14:12;7.40;99.90
18456;DHT22;9357;49.900;8.208;2024-02-14T03:15:44;7.40;99.90
18456;DHT22;9357;49.900;8.208;2024-02-14T03:17:18;8.90;99.90
18456;DHT22;9357;49.900;8.208;2024-02-14T03:18:49;7.30;99.90
18456;DHT22;9357;49.900;8.208;2024-02-14T03:20:23;7.30;99.90
18456;DHT22;9357;49.900;8.208;2024-02-14T03:21:56;7.30;99.90
18456;DHT22;9357;49.900;8.208;2024-02-14T03:23:28;7.30;99.90
18456;DHT22;9357;49.900;8.208;2024-02-14T03:25:02;7.30;99.90
18456;DHT22;9357;49.900;8.208;2024-02-14T03:26:35;7.30;99.90
18456;DHT22;9357;49.900;8.208;2024-02-14T03:28:07;7.30;99.90
18456;DHT22;9357;49.900;8.208;2024-02-14T03:29:40;7.40;99.90
18456;DHT22;9357;49.900;8.208;2024-02-14T03:31:12;7.70;99.90
18456;DHT22;9357;49.900;8.208;2024-02-14T03:32:47;7.40;99.90
18456;DHT22;9357;49.900;8.208;2024-02-14T03:34:20;7.40;99.90
18456;DHT22;9357;49.900;8.208;2024-02-14T03:35:52;7.40;99.90
18456;DHT22;9357;49.900;8.208;2024-02-14T03:37:25;7.40;99.90
18456;DHT22;9357;49.900;8.208;2024-02-14T03:38:59;7.40;99.90
18456;DHT22;9357;49.900;8.208;2024-02-14T03:40:36;7.40;99.90
18456;DHT22;9357;49.900;8.208;2024-02-14T03:42:09;7.50;99.90
18456;DHT22;9357;49.900;8.208;2024-02-14T03:43:41;7.50;99.90
18456;DHT22;9357;49.900;8.208;2024-02-14T03:45:15;7.50;99.90
18456;DHT22;9357;49.900;8.208;2024-02-14T03:46:47;7.50;99.90
18456;DHT22;9357;49.900;8.208;2024-02-14T03:48:19;7.50;99.90
18456;DHT22;9357;49.900;8.208;2024-02-14T03:49:51;7.50;99.90
18456;DHT22;9357;49.900;8.208;2024-02-14T03:51:24;7.60;99.90
18456;DHT22;9357;49.900;8.208;2024-02-14T03:52:56;7.60;99.90
18456;DHT22;9357;49.900;8.208;2024-02-14T03:54:29;7.70;99.90
18456;DHT22;9357;49.900;8.208;2024-02-14T03:56:03;7.60;99.90
18456;DHT22;9357;49.900;8.208;2024-02-14T03:57:35;7.60;99.90
18456;DHT22;9357;49.900;8.208;2024-02-14T03:59:10;7.60;99.90
18456;DHT22;9357;49.900;8.208;2024-02-14T04:00:44;7.60;99.90
18456;DHT22;9357;49.900;8.208;2024-02-14T04:02:16;7.60;99.90
18456;DHT22;9357;49.900;8.208;2024-02-14T04:03:48;7.60;99.90
18456;DHT22;9357;49.900;8.208;2024-02-14T04:05:20;7.60;99.90
18456;DHT22;9357;49.900;8.208;2024-02-14T04:06:54;7.50;99.90
18456;DHT22;9357;49.900;8.208;2024-02-14T04:08:26;7.60;99.90
18456;DHT22;9357;49.900;8.208;2024-02-14T04:10:01;7.40;99.90
18456;DHT22;9357;49.900;8.208;2024-02-14T04:11:34;7.40;99.90
18456;DHT22;9357;49.900;8.208;2024-02-14T04:13:08;7.40;99.90
18456;DHT22;9357;49.900;8.208;2024-02-14T04:14:41;7.40;99.90
18456;DHT22;9357;49.900;8.208;2024-02-14T04:16:14;7.40;99.90
18456;DHT22;9357;49.900;8.208;2024-02-14T04:17:47;7.40;99.90
18456;DHT22;9357;49.900;8.208;2024-02-14T04:19:19;7.40;99.90
18456;DHT22;9357;49.900;8.208;2024-02-14T04:20:52;7.40;99.90
18456;DHT22;9357;49.900;8.208;2024-02-14T04:22:24;7.40;99.90
18456;DHT22;9357;49.900;8.208;2024-02-14T04:23:57;7.40;99.90
18456;DHT22;9357;49.900;8.208;2024-02-14T04:25:28;7.50;99.90
18456;DHT22;9357;49.900;8.208;2024-02-14T04:27:03;7.50;99.90
18456;DHT22;9357;49.900;8.208;2024-02-14T04:28:38;7.50;99.90
18456;DHT22;9357;49.900;8.208;2024-02-14T04:30:12;7.50;99.90
18456;DHT22;9357;49.900;8.208;2024-02-14T04:31:45;7.50;99.90
18456;DHT22;9357;49.900;8.208;2024-02-14T04:33:17;7.50;99.90
18456;DHT22;9357;49.900;8.208;2024-02-14T04:34:50;7.50;99.90
18456;DHT22;9357;49.900;8.208;2024-02-14T04:36:22;7.60;99.90
18456;DHT22;9357;49.900;8.208;2024-02-14T04:37:55;7.60;99.90
18456;DHT22;9357;49.900;8.208;2024-02-14T04:39:27;7.60;99.90
18456;DHT22;9357;49.900;8.208;2024-02-14T04:41:00;7.60;99.90
18456;DHT22;9357;49.900;8.208;2024-02-14T04:42:33;7.70;99.90
18456;DHT22;9357;49.900;8.208;2024-02-14T04:44:06;7.70;99.90
18456;DHT22;9357;49.900;8.208;2024-02-14T04:45:38;7.70;99.90
18456;DHT22;9357;49.900;8.208;2024-02-14T04:47:11;7.70;99.90
18456;DHT22;9357;49.900;8.208;2024-02-14T04:48:43;7.80;99.90
18456;DHT22;9357;49.900;8.208;2024-02-14T04:50:16;7.80;99.90
18456;DHT22;9357;49.900;8.208;2024-02-14T04:51:48;7.80;99.90
18456;DHT22;9357;49.900;8.208;2024-02-14T04:53:20;7.80;99.90
18456;DHT22;9357;49.900;8.208;2024-02-14T04:54:52;7.80;99.90
18456;DHT22;9357;49.900;8.208;2024-02-14T04:56:26;7.80;99.90
18456;DHT22;9357;49.900;8.208;2024-02-14T04:57:59;8.00;99.90
18456;DHT22;9357;49.900;8.208;2024-02-14T04:59:32;7.80;99.90
18456;DHT22;9357;49.900;8.208;2024-02-14T05:01:04;7.90;99.90
18456;DHT22;9357;49.900;8.208;2024-02-14T05:02:38;7.90;99.90
18456;DHT22;9357;49.900;8.208;2024-02-14T05:04:10;7.90;99.90
18456;DHT22;9357;49.900;8.208;2024-02-14T05:05:44;7.90;99.90
18456;DHT22;9357;49.900;8.208;2024-02-14T05:07:16;8.00;99.90
18456;DHT22;9357;49.900;8.208;2024-02-14T05:08:49;8.00;99.90
18456;DHT22;9357;49.900;8.208;2024-02-14T05:10:23;7.90;99.90
18456;DHT22;9357;49.900;8.208;2024-02-14T05:11:55;8.00;99.90
18456;DHT22;9357;49.900;8.208;2024-02-14T05:13:29;8.00;99.90
18456;DHT22;9357;49.900;8.208;2024-02-14T05:15:03;8.00;99.90
18456;DHT22;9357;49.900;8.208;2024-02-14T05:16:35;8.00;99.90
18456;DHT22;9357;49.900;8.208;2024-02-14T05:18:08;8.00;99.90
18456;DHT22;9357;49.900;8.208;2024-02-14T05:19:41;8.00;99.90
18456;DHT22;9357;49.900;8.208;2024-02-14T05:21:14;8.10;99.90
18456;DHT22;9357;49.900;8.208;2024-02-14T05:22:46;8.10;99.90
18456;DHT22;9357;49.900;8.208;2024-02-14T05:24:19;8.10;99.90
18456;DHT22;9357;49.900;8.208;2024-02-14T05:25:52;8.20;99.90
18456;DHT22;9357;49.900;8.208;2024-02-14T05:27:25;8.10;99.90
18456;DHT22;9357;49.900;8.208;2024-02-14T05:28:59;8.10;99.90
18456;DHT22;9357;49.900;8.208;2024-02-14T05:30:32;8.10;99.90
18456;DHT22;9357;49.900;8.208;2024-02-14T05:32:05;8.10;99.90
18456;DHT22;9357;49.900;8.208;2024-02-14T05:33:40;8.10;99.90
18456;DHT22;9357;49.900;8.208;2024-02-14T05:35:12;8.10;99.90
18456;DHT22;9357;49.900;8.208;2024-02-14T05:36:45;8.20;99.90
18456;DHT22;9357;49.900;8.208;2024-02-14T05:38:18;8.20;99.90
18456;DHT22;9357;49.900;8.208;2024-02-14T05:39:51;8.20;99.90
18456;DHT22;9357;49.900;8.208;2024-02-14T05:41:23;8.10;99.90
18456;DHT22;9357;49.900;8.208;2024-02-14T05:42:56;8.20;99.90
18456;DHT22;9357;49.900;8.208;2024-02-14T05:44:29;8.20;99.90
18456;DHT22;9357;49.900;8.208;2024-02-14T05:46:02;8.20;99.90
18456;DHT22;9357;49.900;8.208;2024-02-14T05:47:34;8.20;99.90
18456;DHT22;9357;49.900;8.208;2024-02-14T05:49:07;8.20;99.90
18456;DHT22;9357;49.900;8.208;2024-02-14T05:50:40;8.20;99.90
18456;DHT22;9357;49.900;8.208;2024-02-14T05:52:13;8.20;99.90
18456;DHT22;9357;49.900;8.208;2024-02-14T05:53:47;8.20;99.90
18456;DHT22;9357;49.900;8.208;2024-02-14T05:55:20;8.20;99.90
18456;DHT22;9357;49.900;8.208;2024-02-14T05:56:52;8.30;99.90
18456;DHT22;9357;49.900;8.208;2024-02-14T05:58:24;8.30;99.90
18456;DHT22;9357;49.900;8.208;2024-02-14T06:00:01;8.30;99.90
18456;DHT22;9357;49.900;8.208;2024-02-14T06:01:34;8.30;99.90
18456;DHT22;9357;49.900;8.208;2024-02-14T06:03:07;8.30;99.90
18456;DHT22;9357;49.900;8.208;2024-02-14T06:04:40;8.30;99.90
18456;DHT22;9357;49.900;8.208;2024-02-14T06:06:13;8.30;99.90
18456;DHT22;9357;49.900;8.208;2024-02-14T06:07:45;8.30;99.90
18456;DHT22;9357;49.900;8.208;2024-02-14T06:09:18;8.30;99.90
18456;DHT22;9357;49.900;8.208;2024-02-14T06:10:51;8.30;99.90
18456;DHT22;9357;49.900;8.208;2024-02-14T06:12:23;8.40;99.90
18456;DHT22;9357;49.900;8.208;2024-02-14T06:13:56;8.40;99.90
18456;DHT22;9357;49.900;8.208;2024-02-14T06:15:29;8.40;99.90
18456;DHT22;9357;49.900;8.208;2024-02-14T06:17:02;8.40;99.90
18456;DHT22;9357;49.900;8.208;2024-02-14T06:18:34;8.40;99.90
18456;DHT22;9357;49.900;8.208;2024-02-14T06:20:08;8.40;99.90
18456;DHT22;9357;49.900;8.208;2024-02-14T06:21:41;8.40;99.90
18456;DHT22;9357;49.900;8.208;2024-02-14T06:23:13;8.40;99.90
18456;DHT22;9357;49.900;8.208;2024-02-14T06:24:46;8.40;99.90
18456;DHT22;9357;49.900;8.208;2024-02-14T06:26:20;8.40;99.90
18456;DHT22;9357;49.900;8.208;2024-02-14T06:27:53;8.40;99.90
18456;DHT22;9357;49.900;8.208;2024-02-14T06:29:26;8.40;99.90
18456;DHT22;9357;49.900;8.208;2024-02-14T06:31:00;8.40;99.90
18456;DHT22;9357;49.900;8.208;2024-02-14T06:32:32;8.40;99.90
18456;DHT22;9357;49.900;8.208;2024-02-14T06:34:05;8.40;99.90
18456;DHT22;9357;49.900;8.208;2024-02-14T06:35:39;8.40;99.90
18456;DHT22;9357;49.900;8.208;2024-02-14T06:37:12;8.40;99.90
18456;DHT22;9357;49.900;8.208;2024-02-14T06:38:44;8.40;99.90
18456;DHT22;9357;49.900;8.208;2024-02-14T06:40:17;9.10;99.90
18456;DHT22;9357;49.900;8.208;2024-02-14T06:41:49;8.40;99.90
18456;DHT22;9357;49.900;8.208;2024-02-14T06:43:22;8.50;99.90
18456;DHT22;9357;49.900;8.208;2024-02-14T06:44:55;8.50;99.90
18456;DHT22;9357;49.900;8.208;2024-02-14T06:46:29;8.50;99.90
18456;DHT22;9357;49.900;8.208;2024-02-14T06:48:01;8.50;99.90
18456;DHT22;9357;49.900;8.208;2024-02-14T06:49:35;8.50;99.90
18456;DHT22;9357;49.900;8.208;2024-02-14T06:51:07;8.50;99.90
18456;DHT22;9357;49.900;8.208;2024-02-14T06:52:40;8.50;99.90
18456;DHT22;9357;49.900;8.208;2024-02-14T06:54:12;8.50;99.90
18456;DHT22;9357;49.900;8.208;2024-02-14T06:55:45;8.50;99.90
18456;DHT22;9357;49.900;8.208;2024-02-14T06:57:18;8.50;99.90
18456;DHT22;9357;49.900;8.208;2024-02-14T06:58:51;8.50;99.90
18456;DHT22;9357;49.900;8.208;2024-02-14T07:00:25;8.50;99.90
18456;DHT22;9357;49.900;8.208;2024-02-14T07:02:01;8.40;99.90
18456;DHT22;9357;49.900;8.208;2024-02-14T07:03:44;8.70;99.90
18456;DHT22;9357;49.900;8.208;2024-02-14T07:05:18;8.50;99.90
18456;DHT22;9357;49.900;8.208;2024-02-14T07:06:50;8.50;99.90
18456;DHT22;9357;49.900;8.208;2024-02-14T07:08:23;8.60;99.90
18456;DHT22;9357;49.900;8.208;2024-02-14T07:10:16;8.50;99.90
18456;DHT22;9357;49.900;8.208;2024-02-14T07:11:49;8.50;99.90
18456;DHT22;9357;49.900;8.208;2024-02-14T07:13:23;8.50;99.90
18456;DHT22;9357;49.900;8.208;2024-02-14T07:14:56;8.60;99.90
18456;DHT22;9357;49.900;8.208;2024-02-14T07:16:29;8.50;99.90
18456;DHT22;9357;49.900;8.208;2024-02-14T07:18:04;8.60;99.90
18456;DHT22;9357;49.900;8.208;2024-02-14T07:19:36;8.50;99.90
18456;DHT22;9357;49.900;8.208;2024-02-14T07:21:10;9.00;99.90
18456;DHT22;9357;49.900;8.208;2024-02-14T07:22:42;8.60;99.90
18456;DHT22;9357;49.900;8.208;2024-02-14T07:24:18;8.60;99.90
18456;DHT22;9357;49.900;8.208;2024-02-14T07:25:50;8.60;99.90
18456;DHT22;9357;49.900;8.208;2024-02-14T07:27:23;8.60;99.90
18456;DHT22;9357;49.900;8.208;2024-02-14T07:28:56;8.60;99.90
18456;DHT22;9357;49.900;8.208;2024-02-14T07:30:29;8.60;99.90
18456;DHT22;9357;49.900;8.208;2024-02-14T07:32:02;8.60;99.90
18456;DHT22;9357;49.900;8.208;2024-02-14T07:33:36;8.60;99.90
18456;DHT22;9357;49.900;8.208;2024-02-14T07:35:09;8.60;99.90
18456;DHT22;9357;49.900;8.208;2024-02-14T07:36:41;8.60;99.90
18456;DHT22;9357;49.900;8.208;2024-02-14T07:38:17;8.60;99.90
18456;DHT22;9357;49.900;8.208;2024-02-14T07:39:50;8.60;99.90
18456;DHT22;9357;49.900;8.208;2024-02-14T07:41:22;8.70;99.90
18456;DHT22;9357;49.900;8.208;2024-02-14T07:42:55;8.70;99.90
18456;DHT22;9357;49.900;8.208;2024-02-14T07:44:27;8.70;99.90
18456;DHT22;9357;49.900;8.208;2024-02-14T07:46:00;8.70;99.90
18456;DHT22;9357;49.900;8.208;2024-02-14T07:47:32;8.70;99.90
18456;DHT22;9357;49.900;8.208;2024-02-14T07:49:09;8.60;99.90
18456;DHT22;9357;49.900;8.208;2024-02-14T07:50:41;8.70;99.90
18456;DHT22;9357;49.900;8.208;2024-02-14T07:52:14;8.60;99.90
18456;DHT22;9357;49.900;8.208;2024-02-14T07:53:46;8.60;99.90
18456;DHT22;9357;49.900;8.208;2024-02-14T07:55:19;8.70;99.90
18456;DHT22;9357;49.900;8.208;2024-02-14T07:56:52;8.70;99.90
18456;DHT22;9357;49.900;8.208;2024-02-14T07:58:25;8.70;99.90
18456;DHT22;9357;49.900;8.208;2024-02-14T07:59:57;8.70;99.90
18456;DHT22;9357;49.900;8.208;2024-02-14T08:01:30;8.70;99.90
18456;DHT22;9357;49.900;8.208;2024-02-14T08:03:02;9.00;99.90
18456;DHT22;9357;49.900;8.208;2024-02-14T08:04:39;8.70;99.90
18456;DHT22;9357;49.900;8.208;2024-02-14T08:06:11;8.80;99.90
18456;DHT22;9357;49.900;8.208;2024-02-14T08:07:44;9.30;99.90
18456;DHT22;9357;49.900;8.208;2024-02-14T08:09:16;8.80;99.90
18456;DHT22;9357;49.900;8.208;2024-02-14T08:10:49;9.50;99.90
18456;DHT22;9357;49.900;8.208;2024-02-14T08:12:22;9.60;99.90
18456;DHT22;9357;49.900;8.208;2024-02-14T08:13:59;8.80;99.90
18456;DHT22;9357;49.900;8.208;2024-02-14T08:15:31;8.80;99.90
18456;DHT22;9357;49.900;8.208;2024-02-14T08:17:04;8.90;99.90
18456;DHT22;9357;49.900;8.208;2024-02-14T08:18:36;8.90;99.90
18456;DHT22;9357;49.900;8.208;2024-02-14T08:20:11;8.90;99.90
18456;DHT22;9357;49.900;8.208;2024-02-14T08:21:43;8.90;99.90
18456;DHT22;9357;49.900;8.208;2024-02-14T08:23:16;8.90;99.90
18456;DHT22;9357;49.900;8.208;2024-02-14T08:24:49;8.90;99.90
18456;DHT22;9357;49.900;8.208;2024-02-14T08:26:22;8.90;99.90
18456;DHT22;9357;49.900;8.208;2024-02-14T08:27:56;8.90;99.90
18456;DHT22;9357;49.900;8.208;2024-02-14T08:29:29;8.90;99.90
18456;DHT22;9357;49.900;8.208;2024-02-14T08:31:02;8.90;99.90
18456;DHT22;9357;49.900;8.208;2024-02-14T08:32:34;9.00;99.90
18456;DHT22;9357;49.900;8.208;2024-02-14T08:34:07;9.00;99.90
18456;DHT22;9357;49.900;8.208;2024-02-14T08:35:43;9.20;99.90
18456;DHT22;9357;49.900;8.208;2024-02-14T08:37:16;9.00;99.90
18456;DHT22;9357;49.900;8.208;2024-02-14T08:38:48;9.00;99.90
18456;DHT22;9357;49.900;8.208;2024-02-14T08:40:21;9.50;99.90
18456;DHT22;9357;49.900;8.208;2024-02-14T08:41:57;9.00;99.90
18456;DHT22;9357;49.900;8.208;2024-02-14T08:43:30;9.00;99.90
18456;DHT22;9357;49.900;8.208;2024-02-14T08:45:02;9.10;99.90
18456;DHT22;9357;49.900;8.208;2024-02-14T08:46:35;9.10;99.90
18456;DHT22;9357;49.900;8.208;2024-02-14T08:48:07;9.10;99.90
18456;DHT22;9357;49.900;8.208;2024-02-14T08:49:40;9.10;99.90
18456;DHT22;9357;49.900;8.208;2024-02-14T08:51:15;9.10;99.90
18456;DHT22;9357;49.900;8.208;2024-02-14T08:52:52;9.10;99.90
18456;DHT22;9357;49.900;8.208;2024-02-14T08:54:25;9.10;99.90
18456;DHT22;9357;49.900;8.208;2024-02-14T08:56:00;9.20;99.90
18456;DHT22;9357;49.900;8.208;2024-02-14T08:57:34;9.10;99.90
18456;DHT22;9357;49.900;8.208;2024-02-14T08:59:09;9.20;99.90
18456;DHT22;9357;49.900;8.208;2024-02-14T09:00:43;9.20;99.90
18456;DHT22;9357;49.900;8.208;2024-02-14T09:02:29;9.20;99.90
18456;DHT22;9357;49.900;8.208;2024-02-14T09:04:03;9.20;99.90
18456;DHT22;9357;49.900;8.208;2024-02-14T09:05:37;9.10;99.90
18456;DHT22;9357;49.900;8.208;2024-02-14T09:07:16;9.10;99.90
18456;DHT22;9357;49.900;8.208;2024-02-14T09:08:53;9.20;99.90
18456;DHT22;9357;49.900;8.208;2024-02-14T09:10:29;9.20;99.90
18456;DHT22;9357;49.900;8.208;2024-02-14T09:12:09;9.20;99.90
18456;DHT22;9357;49.900;8.208;2024-02-14T09:13:49;9.20;99.90
18456;DHT22;9357;49.900;8.208;2024-02-14T09:15:29;9.20;99.90
18456;DHT22;9357;49.900;8.208;2024-02-14T09:17:06;9.30;99.90
18456;DHT22;9357;49.900;8.208;2024-02-14T09:18:48;9.50;99.90
18456;DHT22;9357;49.900;8.208;2024-02-14T09:20:33;9.30;99.90
18456;DHT22;9357;49.900;8.208;2024-02-14T09:22:12;9.30;99.90
18456;DHT22;9357;49.900;8.208;2024-02-14T09:23:54;9.30;99.90
18456;DHT22;9357;49.900;8.208;2024-02-14T09:25:36;9.50;99.90
18456;DHT22;9357;49.900;8.208;2024-02-14T09:27:09;9.40;99.90
18456;DHT22;9357;49.900;8.208;2024-02-14T09:28:46;9.40;99.90
18456;DHT22;9357;49.900;8.208;2024-02-14T09:30:19;9.40;99.90
18456;DHT22;9357;49.900;8.208;2024-02-14T09:32:11;9.40;99.90
18456;DHT22;9357;49.900;8.208;2024-02-14T09:33:49;9.40;99.90
18456;DHT22;9357;49.900;8.208;2024-02-14T09:35:32;10.10;99.90
18456;DHT22;9357;49.900;8.208;2024-02-14T09:37:10;9.60;99.90
18456;DHT22;9357;49.900;8.208;2024-02-14T09:38:44;9.50;99.90
18456;DHT22;9357;49.900;8.208;2024-02-14T09:40:19;9.60;99.90
18456;DHT22;9357;49.900;8.208;2024-02-14T09:41:54;9.90;99.90
18456;DHT22;9357;49.900;8.208;2024-02-14T09:43:35;9.50;99.90
18456;DHT22;9357;49.900;8.208;2024-02-14T09:45:09;9.60;99.90
18456;DHT22;9357;49.900;8.208;2024-02-14T09:46:52;9.60;99.90
18456;DHT22;9357;49.900;8.208;2024-02-14T09:48:28;9.60;99.90
18456;DHT22;9357;49.900;8.208;2024-02-14T09:50:06;10.20;99.90
18456;DHT22;9357;49.900;8.208;2024-02-14T09:51:41;9.70;99.90
18456;DHT22;9357;49.900;8.208;2024-02-14T09:53:15;10.00;99.90
18456;DHT22;9357;49.900;8.208;2024-02-14T09:54:47;10.20;99.90
18456;DHT22;9357;49.900;8.208;2024-02-14T09:56:21;9.80;99.90
18456;DHT22;9357;49.900;8.208;2024-02-14T09:57:55;10.10;99.90
18456;DHT22;9357;49.900;8.208;2024-02-14T09:59:29;9.80;99.90
18456;DHT22;9357;49.900;8.208;2024-02-14T10:01:01;9.80;99.90
18456;DHT22;9357;49.900;8.208;2024-02-14T10:02:35;9.80;99.90
18456;DHT22;9357;49.900;8.208;2024-02-14T10:04:10;10.00;99.90
18456;DHT22;9357;49.900;8.208;2024-02-14T10:05:43;10.50;99.90
18456;DHT22;9357;49.900;8.208;2024-02-14T10:07:23;10.20;99.90
18456;DHT22;9357;49.900;8.208;2024-02-14T10:08:57;10.70;99.90
18456;DHT22;9357;49.900;8.208;2024-02-14T10:10:35;10.60;99.90